sensor_id;sensor_type;location;lat;lon;timestamp;P1;durP1;ratioP1;P2;durP2;ratioP2
40649;SDS011;26342;42.826;23.992;2022-07-06T00:01:29;5.72;;;3.40;;
40649;SDS011;26342;42.826;23.992;2022-07-06T00:03:55;6.13;;;4.28;;
40649;SDS011;26342;42.826;23.992;2022-07-06T00:06:20;5.93;;;4.38;;
40649;SDS011;26342;42.826;23.992;2022-07-06T00:08:46;5.40;;;4.63;;
40649;SDS011;26342;42.826;23.992;2022-07-06T00:11:11;5.55;;;4.50;;
40649;SDS011;26342;42.826;23.992;2022-07-06T00:13:37;6.72;;;4.65;;
40649;SDS011;26342;42.826;23.992;2022-07-06T00:16:03;6.18;;;5.13;;
40649;SDS011;26342;42.826;23.992;2022-07-06T00:18:28;6.35;;;5.25;;
40649;SDS011;26342;42.826;23.992;2022-07-06T00:20:54;6.65;;;4.50;;
40649;SDS011;26342;42.826;23.992;2022-07-06T00:23:19;4.63;;;4.07;;
40649;SDS011;26342;42.826;23.992;2022-07-06T00:25:45;5.68;;;5.10;;
40649;SDS011;26342;42.826;23.992;2022-07-06T00:28:10;6.05;;;4.82;;
40649;SDS011;26342;42.826;23.992;2022-07-06T00:30:36;5.50;;;4.68;;
40649;SDS011;26342;42.826;23.992;2022-07-06T00:33:01;5.00;;;4.50;;
40649;SDS011;26342;42.826;23.992;2022-07-06T00:35:27;6.38;;;4.47;;
40649;SDS011;26342;42.826;23.992;2022-07-06T00:37:52;6.97;;;5.15;;
40649;SDS011;26342;42.826;23.992;2022-07-06T00:40:18;6.18;;;4.65;;
40649;SDS011;26342;42.826;23.992;2022-07-06T00:42:44;5.88;;;5.07;;
40649;SDS011;26342;42.826;23.992;2022-07-06T00:45:11;6.65;;;5.00;;
40649;SDS011;26342;42.826;23.992;2022-07-06T00:47:38;5.20;;;4.28;;
40649;SDS011;26342;42.826;23.992;2022-07-06T00:50:05;5.90;;;4.57;;
40649;SDS011;26342;42.826;23.992;2022-07-06T00:55:13;5.43;;;4.80;;
40649;SDS011;26342;42.826;23.992;2022-07-06T00:57:40;5.70;;;4.68;;
40649;SDS011;26342;42.826;23.992;2022-07-06T01:00:08;6.43;;;4.80;;
40649;SDS011;26342;42.826;23.992;2022-07-06T01:02:36;6.68;;;4.65;;
40649;SDS011;26342;42.826;23.992;2022-07-06T01:05:06;6.90;;;4.70;;
40649;SDS011;26342;42.826;23.992;2022-07-06T01:07:33;5.97;;;5.05;;
40649;SDS011;26342;42.826;23.992;2022-07-06T01:09:58;6.35;;;4.97;;
40649;SDS011;26342;42.826;23.992;2022-07-06T01:12:24;6.10;;;4.93;;
40649;SDS011;26342;42.826;23.992;2022-07-06T01:14:50;5.70;;;4.70;;
40649;SDS011;26342;42.826;23.992;2022-07-06T01:17:16;6.05;;;4.90;;
40649;SDS011;26342;42.826;23.992;2022-07-06T01:19:42;5.53;;;4.35;;
40649;SDS011;26342;42.826;23.992;2022-07-06T01:22:08;5.65;;;4.40;;
40649;SDS011;26342;42.826;23.992;2022-07-06T01:24:34;5.60;;;3.85;;
40649;SDS011;26342;42.826;23.992;2022-07-06T01:27:00;6.13;;;4.38;;
40649;SDS011;26342;42.826;23.992;2022-07-06T01:29:26;4.88;;;4.05;;
40649;SDS011;26342;42.826;23.992;2022-07-06T01:31:51;5.30;;;4.03;;
40649;SDS011;26342;42.826;23.992;2022-07-06T01:34:17;5.22;;;4.40;;
40649;SDS011;26342;42.826;23.992;2022-07-06T01:36:43;5.07;;;4.07;;
40649;SDS011;26342;42.826;23.992;2022-07-06T01:39:09;5.95;;;4.35;;
40649;SDS011;26342;42.826;23.992;2022-07-06T01:41:35;8.50;;;4.32;;
40649;SDS011;26342;42.826;23.992;2022-07-06T01:44:01;5.15;;;4.28;;
40649;SDS011;26342;42.826;23.992;2022-07-06T01:46:27;4.95;;;4.07;;
40649;SDS011;26342;42.826;23.992;2022-07-06T01:48:52;6.22;;;4.60;;
40649;SDS011;26342;42.826;23.992;2022-07-06T01:51:18;7.00;;;3.92;;
40649;SDS011;26342;42.826;23.992;2022-07-06T01:53:43;5.05;;;4.28;;
40649;SDS011;26342;42.826;23.992;2022-07-06T01:56:09;5.25;;;4.00;;
40649;SDS011;26342;42.826;23.992;2022-07-06T01:58:35;5.90;;;4.50;;
40649;SDS011;26342;42.826;23.992;2022-07-06T02:01:10;6.80;;;4.35;;
40649;SDS011;26342;42.826;23.992;2022-07-06T02:03:46;5.00;;;4.00;;
40649;SDS011;26342;42.826;23.992;2022-07-06T02:06:12;4.65;;;4.10;;
40649;SDS011;26342;42.826;23.992;2022-07-06T02:08:37;5.80;;;4.13;;
40649;SDS011;26342;42.826;23.992;2022-07-06T02:11:04;5.40;;;4.40;;
40649;SDS011;26342;42.826;23.992;2022-07-06T02:13:31;6.75;;;4.10;;
40649;SDS011;26342;42.826;23.992;2022-07-06T02:15:56;5.22;;;4.07;;
40649;SDS011;26342;42.826;23.992;2022-07-06T02:18:22;5.57;;;4.45;;
40649;SDS011;26342;42.826;23.992;2022-07-06T02:20:47;6.28;;;4.30;;
40649;SDS011;26342;42.826;23.992;2022-07-06T02:23:12;4.82;;;4.03;;
40649;SDS011;26342;42.826;23.992;2022-07-06T02:25:38;5.63;;;4.40;;
40649;SDS011;26342;42.826;23.992;2022-07-06T02:28:04;6.47;;;4.50;;
40649;SDS011;26342;42.826;23.992;2022-07-06T02:30:29;5.72;;;4.25;;
40649;SDS011;26342;42.826;23.992;2022-07-06T02:32:55;5.93;;;4.68;;
40649;SDS011;26342;42.826;23.992;2022-07-06T02:35:20;5.25;;;4.32;;
40649;SDS011;26342;42.826;23.992;2022-07-06T02:37:46;7.20;;;4.70;;
40649;SDS011;26342;42.826;23.992;2022-07-06T02:40:11;5.47;;;4.28;;
40649;SDS011;26342;42.826;23.992;2022-07-06T02:42:37;6.63;;;4.30;;
40649;SDS011;26342;42.826;23.992;2022-07-06T02:45:02;5.13;;;4.30;;
40649;SDS011;26342;42.826;23.992;2022-07-06T02:47:28;6.85;;;4.65;;
40649;SDS011;26342;42.826;23.992;2022-07-06T02:49:54;5.90;;;4.60;;
40649;SDS011;26342;42.826;23.992;2022-07-06T02:52:20;7.03;;;4.57;;
40649;SDS011;26342;42.826;23.992;2022-07-06T02:54:45;10.15;;;4.80;;
40649;SDS011;26342;42.826;23.992;2022-07-06T02:57:10;6.45;;;4.70;;
40649;SDS011;26342;42.826;23.992;2022-07-06T02:59:36;5.97;;;4.60;;
40649;SDS011;26342;42.826;23.992;2022-07-06T03:02:04;5.28;;;4.32;;
40649;SDS011;26342;42.826;23.992;2022-07-06T03:04:30;6.22;;;4.47;;
40649;SDS011;26342;42.826;23.992;2022-07-06T03:06:56;5.43;;;4.57;;
40649;SDS011;26342;42.826;23.992;2022-07-06T03:09:21;5.18;;;4.25;;
40649;SDS011;26342;42.826;23.992;2022-07-06T03:11:47;7.00;;;4.07;;
40649;SDS011;26342;42.826;23.992;2022-07-06T03:14:12;7.28;;;4.50;;
40649;SDS011;26342;42.826;23.992;2022-07-06T03:16:37;5.72;;;4.97;;
40649;SDS011;26342;42.826;23.992;2022-07-06T03:19:03;7.38;;;5.53;;
40649;SDS011;26342;42.826;23.992;2022-07-06T03:21:28;7.47;;;5.25;;
40649;SDS011;26342;42.826;23.992;2022-07-06T03:23:54;7.90;;;5.30;;
40649;SDS011;26342;42.826;23.992;2022-07-06T03:26:19;7.10;;;5.15;;
40649;SDS011;26342;42.826;23.992;2022-07-06T03:28:44;8.15;;;5.90;;
40649;SDS011;26342;42.826;23.992;2022-07-06T03:31:10;7.43;;;5.95;;
40649;SDS011;26342;42.826;23.992;2022-07-06T03:33:35;7.68;;;6.00;;
40649;SDS011;26342;42.826;23.992;2022-07-06T03:36:01;7.20;;;5.95;;
40649;SDS011;26342;42.826;23.992;2022-07-06T03:38:26;7.72;;;5.75;;
40649;SDS011;26342;42.826;23.992;2022-07-06T03:40:51;7.65;;;6.03;;
40649;SDS011;26342;42.826;23.992;2022-07-06T03:43:17;7.68;;;5.82;;
40649;SDS011;26342;42.826;23.992;2022-07-06T03:45:42;8.35;;;6.05;;
40649;SDS011;26342;42.826;23.992;2022-07-06T03:48:08;5.68;;;4.78;;
40649;SDS011;26342;42.826;23.992;2022-07-06T03:50:34;6.47;;;5.10;;
40649;SDS011;26342;42.826;23.992;2022-07-06T03:52:59;8.82;;;6.40;;
40649;SDS011;26342;42.826;23.992;2022-07-06T03:55:25;5.97;;;4.10;;
40649;SDS011;26342;42.826;23.992;2022-07-06T03:57:50;8.73;;;4.28;;
40649;SDS011;26342;42.826;23.992;2022-07-06T04:00:16;5.18;;;3.95;;
40649;SDS011;26342;42.826;23.992;2022-07-06T04:02:41;5.78;;;4.53;;
40649;SDS011;26342;42.826;23.992;2022-07-06T04:05:07;6.13;;;4.15;;
40649;SDS011;26342;42.826;23.992;2022-07-06T04:07:32;5.80;;;4.22;;
40649;SDS011;26342;42.826;23.992;2022-07-06T04:09:58;6.70;;;4.40;;
40649;SDS011;26342;42.826;23.992;2022-07-06T04:12:23;5.38;;;4.00;;
40649;SDS011;26342;42.826;23.992;2022-07-06T04:14:49;6.00;;;4.47;;
40649;SDS011;26342;42.826;23.992;2022-07-06T04:17:14;6.57;;;4.20;;
40649;SDS011;26342;42.826;23.992;2022-07-06T04:19:58;7.00;;;4.80;;
40649;SDS011;26342;42.826;23.992;2022-07-06T04:22:23;7.13;;;4.82;;
40649;SDS011;26342;42.826;23.992;2022-07-06T04:24:49;5.97;;;3.90;;
40649;SDS011;26342;42.826;23.992;2022-07-06T04:27:14;6.25;;;4.18;;
40649;SDS011;26342;42.826;23.992;2022-07-06T04:29:40;6.38;;;4.32;;
40649;SDS011;26342;42.826;23.992;2022-07-06T04:32:05;6.03;;;4.57;;
40649;SDS011;26342;42.826;23.992;2022-07-06T04:34:31;6.05;;;4.25;;
40649;SDS011;26342;42.826;23.992;2022-07-06T04:36:56;8.25;;;4.15;;
40649;SDS011;26342;42.826;23.992;2022-07-06T04:39:22;6.25;;;4.45;;
40649;SDS011;26342;42.826;23.992;2022-07-06T04:41:47;7.18;;;4.65;;
40649;SDS011;26342;42.826;23.992;2022-07-06T04:44:12;7.38;;;4.18;;
40649;SDS011;26342;42.826;23.992;2022-07-06T04:46:38;6.65;;;4.63;;
40649;SDS011;26342;42.826;23.992;2022-07-06T04:49:03;5.95;;;4.15;;
40649;SDS011;26342;42.826;23.992;2022-07-06T04:51:29;7.45;;;5.13;;
40649;SDS011;26342;42.826;23.992;2022-07-06T04:53:54;6.63;;;4.30;;
40649;SDS011;26342;42.826;23.992;2022-07-06T04:56:19;10.13;;;4.80;;
40649;SDS011;26342;42.826;23.992;2022-07-06T04:58:45;6.25;;;4.65;;
40649;SDS011;26342;42.826;23.992;2022-07-06T05:01:10;5.65;;;4.43;;
40649;SDS011;26342;42.826;23.992;2022-07-06T05:03:36;6.72;;;5.07;;
40649;SDS011;26342;42.826;23.992;2022-07-06T05:06:04;8.90;;;4.93;;
40649;SDS011;26342;42.826;23.992;2022-07-06T05:08:31;6.55;;;4.70;;
40649;SDS011;26342;42.826;23.992;2022-07-06T05:10:58;6.13;;;4.40;;
40649;SDS011;26342;42.826;23.992;2022-07-06T05:13:23;7.00;;;4.90;;
40649;SDS011;26342;42.826;23.992;2022-07-06T05:15:49;5.95;;;4.55;;
40649;SDS011;26342;42.826;23.992;2022-07-06T05:18:14;8.63;;;4.82;;
40649;SDS011;26342;42.826;23.992;2022-07-06T05:20:40;6.18;;;4.38;;
40649;SDS011;26342;42.826;23.992;2022-07-06T05:23:06;6.80;;;4.65;;
40649;SDS011;26342;42.826;23.992;2022-07-06T05:25:31;6.82;;;4.63;;
40649;SDS011;26342;42.826;23.992;2022-07-06T05:27:58;7.30;;;4.68;;
40649;SDS011;26342;42.826;23.992;2022-07-06T05:30:24;6.57;;;4.45;;
40649;SDS011;26342;42.826;23.992;2022-07-06T05:32:49;8.98;;;5.03;;
40649;SDS011;26342;42.826;23.992;2022-07-06T05:35:15;7.35;;;4.75;;
40649;SDS011;26342;42.826;23.992;2022-07-06T05:37:41;6.43;;;4.38;;
40649;SDS011;26342;42.826;23.992;2022-07-06T05:40:07;6.78;;;4.68;;
40649;SDS011;26342;42.826;23.992;2022-07-06T05:42:32;7.35;;;5.45;;
40649;SDS011;26342;42.826;23.992;2022-07-06T05:44:58;7.10;;;4.97;;
40649;SDS011;26342;42.826;23.992;2022-07-06T05:47:23;7.60;;;5.88;;
40649;SDS011;26342;42.826;23.992;2022-07-06T05:50:07;6.45;;;4.82;;
40649;SDS011;26342;42.826;23.992;2022-07-06T05:52:39;7.43;;;5.15;;
40649;SDS011;26342;42.826;23.992;2022-07-06T05:55:10;7.25;;;5.07;;
40649;SDS011;26342;42.826;23.992;2022-07-06T05:57:36;6.65;;;5.07;;
40649;SDS011;26342;42.826;23.992;2022-07-06T06:00:03;6.57;;;5.07;;
40649;SDS011;26342;42.826;23.992;2022-07-06T06:02:39;8.07;;;5.57;;
40649;SDS011;26342;42.826;23.992;2022-07-06T06:05:06;6.55;;;5.22;;
40649;SDS011;26342;42.826;23.992;2022-07-06T06:07:34;7.38;;;4.47;;
40649;SDS011;26342;42.826;23.992;2022-07-06T06:10:02;7.95;;;4.68;;
40649;SDS011;26342;42.826;23.992;2022-07-06T06:12:28;6.60;;;4.95;;
40649;SDS011;26342;42.826;23.992;2022-07-06T06:14:54;10.43;;;5.78;;
40649;SDS011;26342;42.826;23.992;2022-07-06T06:17:19;8.55;;;5.28;;
40649;SDS011;26342;42.826;23.992;2022-07-06T06:19:44;8.38;;;5.75;;
40649;SDS011;26342;42.826;23.992;2022-07-06T06:22:10;7.82;;;4.93;;
40649;SDS011;26342;42.826;23.992;2022-07-06T06:24:35;6.35;;;4.68;;
40649;SDS011;26342;42.826;23.992;2022-07-06T06:27:00;6.97;;;4.80;;
40649;SDS011;26342;42.826;23.992;2022-07-06T06:29:26;10.23;;;5.07;;
40649;SDS011;26342;42.826;23.992;2022-07-06T06:31:51;8.88;;;5.32;;
40649;SDS011;26342;42.826;23.992;2022-07-06T06:34:17;7.30;;;5.05;;
40649;SDS011;26342;42.826;23.992;2022-07-06T06:36:42;6.88;;;4.72;;
40649;SDS011;26342;42.826;23.992;2022-07-06T06:39:07;6.70;;;4.90;;
40649;SDS011;26342;42.826;23.992;2022-07-06T06:41:33;6.50;;;4.90;;
40649;SDS011;26342;42.826;23.992;2022-07-06T06:43:58;7.78;;;5.88;;
40649;SDS011;26342;42.826;23.992;2022-07-06T06:46:23;7.18;;;5.10;;
40649;SDS011;26342;42.826;23.992;2022-07-06T06:48:49;6.25;;;4.65;;
40649;SDS011;26342;42.826;23.992;2022-07-06T06:51:14;6.68;;;4.57;;
40649;SDS011;26342;42.826;23.992;2022-07-06T06:53:40;8.82;;;4.75;;
40649;SDS011;26342;42.826;23.992;2022-07-06T06:56:05;5.47;;;4.13;;
40649;SDS011;26342;42.826;23.992;2022-07-06T06:58:31;6.22;;;4.05;;
40649;SDS011;26342;42.826;23.992;2022-07-06T07:00:56;5.70;;;4.13;;
40649;SDS011;26342;42.826;23.992;2022-07-06T07:03:22;5.22;;;3.33;;
40649;SDS011;26342;42.826;23.992;2022-07-06T07:05:47;5.55;;;3.53;;
40649;SDS011;26342;42.826;23.992;2022-07-06T07:08:13;6.82;;;3.75;;
40649;SDS011;26342;42.826;23.992;2022-07-06T07:10:39;5.60;;;3.90;;
40649;SDS011;26342;42.826;23.992;2022-07-06T07:13:04;6.00;;;3.72;;
40649;SDS011;26342;42.826;23.992;2022-07-06T07:15:30;5.25;;;4.00;;
40649;SDS011;26342;42.826;23.992;2022-07-06T07:17:55;7.43;;;3.80;;
40649;SDS011;26342;42.826;23.992;2022-07-06T07:20:21;6.63;;;4.43;;
40649;SDS011;26342;42.826;23.992;2022-07-06T07:22:47;5.90;;;3.90;;
40649;SDS011;26342;42.826;23.992;2022-07-06T07:25:12;5.15;;;3.92;;
40649;SDS011;26342;42.826;23.992;2022-07-06T07:27:37;6.88;;;3.67;;
40649;SDS011;26342;42.826;23.992;2022-07-06T07:30:03;6.22;;;3.85;;
40649;SDS011;26342;42.826;23.992;2022-07-06T07:32:29;5.63;;;3.70;;
40649;SDS011;26342;42.826;23.992;2022-07-06T07:34:54;4.65;;;3.63;;
40649;SDS011;26342;42.826;23.992;2022-07-06T07:37:20;5.13;;;3.63;;
40649;SDS011;26342;42.826;23.992;2022-07-06T07:39:45;4.95;;;3.33;;
40649;SDS011;26342;42.826;23.992;2022-07-06T07:42:11;4.07;;;3.20;;
40649;SDS011;26342;42.826;23.992;2022-07-06T07:44:36;7.22;;;4.22;;
40649;SDS011;26342;42.826;23.992;2022-07-06T07:47:03;5.57;;;4.07;;
40649;SDS011;26342;42.826;23.992;2022-07-06T07:49:29;5.80;;;4.22;;
40649;SDS011;26342;42.826;23.992;2022-07-06T07:51:54;5.95;;;3.67;;
40649;SDS011;26342;42.826;23.992;2022-07-06T07:54:20;6.30;;;3.80;;
40649;SDS011;26342;42.826;23.992;2022-07-06T07:56:45;4.88;;;3.58;;
40649;SDS011;26342;42.826;23.992;2022-07-06T07:59:11;7.20;;;3.75;;
40649;SDS011;26342;42.826;23.992;2022-07-06T08:01:36;5.50;;;3.65;;
40649;SDS011;26342;42.826;23.992;2022-07-06T08:04:02;4.80;;;3.42;;
40649;SDS011;26342;42.826;23.992;2022-07-06T08:06:27;4.57;;;3.60;;
40649;SDS011;26342;42.826;23.992;2022-07-06T08:08:53;7.22;;;3.55;;
40649;SDS011;26342;42.826;23.992;2022-07-06T08:11:18;4.15;;;3.25;;
40649;SDS011;26342;42.826;23.992;2022-07-06T08:13:44;7.05;;;3.88;;
40649;SDS011;26342;42.826;23.992;2022-07-06T08:16:10;5.10;;;3.78;;
40649;SDS011;26342;42.826;23.992;2022-07-06T08:18:36;6.03;;;3.83;;
40649;SDS011;26342;42.826;23.992;2022-07-06T08:21:02;4.97;;;3.70;;
40649;SDS011;26342;42.826;23.992;2022-07-06T08:23:28;5.68;;;3.83;;
40649;SDS011;26342;42.826;23.992;2022-07-06T08:25:53;4.65;;;3.38;;
40649;SDS011;26342;42.826;23.992;2022-07-06T08:28:19;4.97;;;3.42;;
40649;SDS011;26342;42.826;23.992;2022-07-06T08:30:44;5.30;;;3.85;;
40649;SDS011;26342;42.826;23.992;2022-07-06T08:33:10;5.88;;;3.60;;
40649;SDS011;26342;42.826;23.992;2022-07-06T08:35:35;4.68;;;3.25;;
40649;SDS011;26342;42.826;23.992;2022-07-06T08:38:01;6.20;;;3.72;;
40649;SDS011;26342;42.826;23.992;2022-07-06T08:40:28;4.50;;;3.40;;
40649;SDS011;26342;42.826;23.992;2022-07-06T08:42:57;4.90;;;3.38;;
40649;SDS011;26342;42.826;23.992;2022-07-06T08:45:24;4.60;;;3.42;;
40649;SDS011;26342;42.826;23.992;2022-07-06T08:47:50;6.05;;;3.22;;
40649;SDS011;26342;42.826;23.992;2022-07-06T08:50:18;5.57;;;3.88;;
40649;SDS011;26342;42.826;23.992;2022-07-06T08:52:45;4.95;;;3.72;;
40649;SDS011;26342;42.826;23.992;2022-07-06T08:55:12;4.70;;;3.55;;
40649;SDS011;26342;42.826;23.992;2022-07-06T08:57:38;4.95;;;3.40;;
40649;SDS011;26342;42.826;23.992;2022-07-06T09:00:07;4.78;;;3.75;;
40649;SDS011;26342;42.826;23.992;2022-07-06T09:02:33;6.70;;;3.65;;
40649;SDS011;26342;42.826;23.992;2022-07-06T09:05:00;3.88;;;3.20;;
40649;SDS011;26342;42.826;23.992;2022-07-06T09:07:28;5.50;;;3.22;;
40649;SDS011;26342;42.826;23.992;2022-07-06T09:09:54;3.85;;;3.22;;
40649;SDS011;26342;42.826;23.992;2022-07-06T09:12:21;5.20;;;3.22;;
40649;SDS011;26342;42.826;23.992;2022-07-06T09:14:46;4.75;;;3.08;;
40649;SDS011;26342;42.826;23.992;2022-07-06T09:17:12;4.28;;;3.00;;
40649;SDS011;26342;42.826;23.992;2022-07-06T09:19:38;4.80;;;3.00;;
40649;SDS011;26342;42.826;23.992;2022-07-06T09:22:04;3.88;;;3.10;;
40649;SDS011;26342;42.826;23.992;2022-07-06T09:24:30;3.92;;;3.08;;
40649;SDS011;26342;42.826;23.992;2022-07-06T09:26:56;5.72;;;3.33;;
40649;SDS011;26342;42.826;23.992;2022-07-06T09:29:26;5.38;;;3.15;;
40649;SDS011;26342;42.826;23.992;2022-07-06T09:31:56;4.15;;;3.05;;
40649;SDS011;26342;42.826;23.992;2022-07-06T09:34:31;4.10;;;2.70;;
40649;SDS011;26342;42.826;23.992;2022-07-06T09:37:07;3.72;;;2.78;;
40649;SDS011;26342;42.826;23.992;2022-07-06T09:39:32;3.08;;;2.38;;
40649;SDS011;26342;42.826;23.992;2022-07-06T09:41:59;4.10;;;2.55;;
40649;SDS011;26342;42.826;23.992;2022-07-06T09:44:26;3.65;;;2.70;;
40649;SDS011;26342;42.826;23.992;2022-07-06T09:46:57;4.80;;;2.80;;
40649;SDS011;26342;42.826;23.992;2022-07-06T09:49:27;3.75;;;2.58;;
40649;SDS011;26342;42.826;23.992;2022-07-06T09:51:57;3.33;;;2.40;;
40649;SDS011;26342;42.826;23.992;2022-07-06T09:54:24;4.50;;;2.50;;
40649;SDS011;26342;42.826;23.992;2022-07-06T09:56:50;5.50;;;2.63;;
40649;SDS011;26342;42.826;23.992;2022-07-06T09:59:24;3.85;;;2.63;;
40649;SDS011;26342;42.826;23.992;2022-07-06T10:01:55;4.07;;;2.53;;
40649;SDS011;26342;42.826;23.992;2022-07-06T10:04:22;3.47;;;2.60;;
40649;SDS011;26342;42.826;23.992;2022-07-06T10:06:49;4.05;;;2.75;;
40649;SDS011;26342;42.826;23.992;2022-07-06T10:09:15;3.65;;;2.65;;
40649;SDS011;26342;42.826;23.992;2022-07-06T10:11:50;2.53;;;2.25;;
40649;SDS011;26342;42.826;23.992;2022-07-06T10:14:17;3.63;;;2.47;;
40649;SDS011;26342;42.826;23.992;2022-07-06T10:16:45;3.50;;;2.40;;
40649;SDS011;26342;42.826;23.992;2022-07-06T10:19:12;4.00;;;2.88;;
40649;SDS011;26342;42.826;23.992;2022-07-06T10:21:39;4.22;;;2.53;;
40649;SDS011;26342;42.826;23.992;2022-07-06T10:24:06;4.43;;;2.97;;
40649;SDS011;26342;42.826;23.992;2022-07-06T10:26:33;4.55;;;2.80;;
40649;SDS011;26342;42.826;23.992;2022-07-06T10:29:00;3.65;;;2.70;;
40649;SDS011;26342;42.826;23.992;2022-07-06T10:31:27;3.40;;;2.78;;
40649;SDS011;26342;42.826;23.992;2022-07-06T10:33:54;4.00;;;2.75;;
40649;SDS011;26342;42.826;23.992;2022-07-06T10:36:21;4.47;;;3.25;;
40649;SDS011;26342;42.826;23.992;2022-07-06T10:38:50;3.33;;;2.55;;
40649;SDS011;26342;42.826;23.992;2022-07-06T10:41:17;4.93;;;3.10;;
40649;SDS011;26342;42.826;23.992;2022-07-06T10:43:47;4.43;;;2.88;;
40649;SDS011;26342;42.826;23.992;2022-07-06T10:46:17;6.75;;;3.00;;
40649;SDS011;26342;42.826;23.992;2022-07-06T10:48:44;4.60;;;3.00;;
40649;SDS011;26342;42.826;23.992;2022-07-06T10:51:11;3.90;;;2.90;;
40649;SDS011;26342;42.826;23.992;2022-07-06T10:53:38;4.20;;;3.30;;
40649;SDS011;26342;42.826;23.992;2022-07-06T10:56:06;6.28;;;3.67;;
40649;SDS011;26342;42.826;23.992;2022-07-06T11:01:13;5.22;;;3.40;;
40649;SDS011;26342;42.826;23.992;2022-07-06T11:03:43;4.45;;;3.10;;
40649;SDS011;26342;42.826;23.992;2022-07-06T11:06:12;5.55;;;3.65;;
40649;SDS011;26342;42.826;23.992;2022-07-06T11:13:58;3.83;;;3.00;;
40649;SDS011;26342;42.826;23.992;2022-07-06T11:16:24;5.03;;;3.58;;
40649;SDS011;26342;42.826;23.992;2022-07-06T11:21:33;6.20;;;4.15;;
40649;SDS011;26342;42.826;23.992;2022-07-06T11:24:04;7.20;;;4.22;;
40649;SDS011;26342;42.826;23.992;2022-07-06T11:26:31;4.68;;;3.55;;
40649;SDS011;26342;42.826;23.992;2022-07-06T11:28:58;5.90;;;4.18;;
40649;SDS011;26342;42.826;23.992;2022-07-06T11:31:24;6.25;;;4.38;;
40649;SDS011;26342;42.826;23.992;2022-07-06T11:33:50;5.63;;;4.38;;
40649;SDS011;26342;42.826;23.992;2022-07-06T11:36:16;5.28;;;3.88;;
40649;SDS011;26342;42.826;23.992;2022-07-06T11:38:47;7.05;;;4.53;;
40649;SDS011;26342;42.826;23.992;2022-07-06T11:41:13;7.30;;;4.43;;
40649;SDS011;26342;42.826;23.992;2022-07-06T11:43:41;6.60;;;4.53;;
40649;SDS011;26342;42.826;23.992;2022-07-06T11:46:18;7.30;;;4.60;;
40649;SDS011;26342;42.826;23.992;2022-07-06T11:48:47;5.53;;;4.07;;
40649;SDS011;26342;42.826;23.992;2022-07-06T11:51:13;7.40;;;4.18;;
40649;SDS011;26342;42.826;23.992;2022-07-06T11:53:42;5.68;;;4.20;;
40649;SDS011;26342;42.826;23.992;2022-07-06T11:56:08;5.90;;;4.38;;
40649;SDS011;26342;42.826;23.992;2022-07-06T11:58:34;5.78;;;4.40;;
40649;SDS011;26342;42.826;23.992;2022-07-06T12:01:07;7.72;;;5.00;;
40649;SDS011;26342;42.826;23.992;2022-07-06T12:03:34;6.22;;;4.38;;
40649;SDS011;26342;42.826;23.992;2022-07-06T12:06:04;6.88;;;4.47;;
40649;SDS011;26342;42.826;23.992;2022-07-06T12:08:30;5.72;;;4.25;;
40649;SDS011;26342;42.826;23.992;2022-07-06T12:10:56;5.03;;;4.03;;
40649;SDS011;26342;42.826;23.992;2022-07-06T12:13:22;7.20;;;4.68;;
40649;SDS011;26342;42.826;23.992;2022-07-06T12:15:51;6.53;;;4.57;;
40649;SDS011;26342;42.826;23.992;2022-07-06T12:18:16;6.90;;;4.80;;
40649;SDS011;26342;42.826;23.992;2022-07-06T12:20:42;7.30;;;4.25;;
40649;SDS011;26342;42.826;23.992;2022-07-06T12:23:08;6.22;;;4.15;;
40649;SDS011;26342;42.826;23.992;2022-07-06T12:25:34;5.97;;;4.38;;
40649;SDS011;26342;42.826;23.992;2022-07-06T12:28:01;7.05;;;4.07;;
40649;SDS011;26342;42.826;23.992;2022-07-06T12:30:27;6.20;;;4.88;;
40649;SDS011;26342;42.826;23.992;2022-07-06T12:35:41;6.13;;;4.45;;
40649;SDS011;26342;42.826;23.992;2022-07-06T12:38:07;7.60;;;4.72;;
40649;SDS011;26342;42.826;23.992;2022-07-06T12:40:34;7.60;;;4.75;;
40649;SDS011;26342;42.826;23.992;2022-07-06T12:43:01;6.90;;;4.80;;
40649;SDS011;26342;42.826;23.992;2022-07-06T12:45:28;7.18;;;5.38;;
40649;SDS011;26342;42.826;23.992;2022-07-06T12:50:30;8.70;;;5.00;;
40649;SDS011;26342;42.826;23.992;2022-07-06T12:53:02;6.80;;;4.75;;
40649;SDS011;26342;42.826;23.992;2022-07-06T12:55:30;6.55;;;4.88;;
40649;SDS011;26342;42.826;23.992;2022-07-06T12:57:56;7.15;;;4.38;;
40649;SDS011;26342;42.826;23.992;2022-07-06T13:00:23;7.57;;;5.35;;
40649;SDS011;26342;42.826;23.992;2022-07-06T13:02:50;6.95;;;4.82;;
40649;SDS011;26342;42.826;23.992;2022-07-06T13:05:25;5.45;;;4.32;;
40649;SDS011;26342;42.826;23.992;2022-07-06T13:07:55;6.82;;;4.88;;
40649;SDS011;26342;42.826;23.992;2022-07-06T13:10:22;10.82;;;4.82;;
40649;SDS011;26342;42.826;23.992;2022-07-06T13:12:49;7.25;;;5.00;;
40649;SDS011;26342;42.826;23.992;2022-07-06T13:15:14;7.03;;;4.80;;
40649;SDS011;26342;42.826;23.992;2022-07-06T13:17:40;7.43;;;4.32;;
40649;SDS011;26342;42.826;23.992;2022-07-06T13:20:10;5.53;;;4.45;;
40649;SDS011;26342;42.826;23.992;2022-07-06T13:22:38;6.30;;;3.80;;
40649;SDS011;26342;42.826;23.992;2022-07-06T13:25:04;7.28;;;4.40;;
40649;SDS011;26342;42.826;23.992;2022-07-06T13:27:30;5.55;;;3.92;;
40649;SDS011;26342;42.826;23.992;2022-07-06T13:29:55;6.10;;;4.45;;
40649;SDS011;26342;42.826;23.992;2022-07-06T13:32:21;5.78;;;4.32;;
40649;SDS011;26342;42.826;23.992;2022-07-06T13:34:47;6.70;;;4.53;;
40649;SDS011;26342;42.826;23.992;2022-07-06T13:37:12;6.38;;;4.55;;
40649;SDS011;26342;42.826;23.992;2022-07-06T13:39:38;6.20;;;4.30;;
40649;SDS011;26342;42.826;23.992;2022-07-06T13:42:03;6.07;;;4.38;;
40649;SDS011;26342;42.826;23.992;2022-07-06T13:44:29;5.60;;;4.55;;
40649;SDS011;26342;42.826;23.992;2022-07-06T13:46:54;5.88;;;4.43;;
40649;SDS011;26342;42.826;23.992;2022-07-06T13:49:20;5.88;;;4.32;;
40649;SDS011;26342;42.826;23.992;2022-07-06T13:51:45;7.93;;;4.75;;
40649;SDS011;26342;42.826;23.992;2022-07-06T13:54:11;7.90;;;4.93;;
40649;SDS011;26342;42.826;23.992;2022-07-06T13:56:37;5.88;;;4.38;;
40649;SDS011;26342;42.826;23.992;2022-07-06T13:59:04;7.10;;;4.75;;
40649;SDS011;26342;42.826;23.992;2022-07-06T14:01:30;6.88;;;4.53;;
40649;SDS011;26342;42.826;23.992;2022-07-06T14:03:56;6.65;;;4.57;;
40649;SDS011;26342;42.826;23.992;2022-07-06T14:06:21;6.57;;;5.10;;
40649;SDS011;26342;42.826;23.992;2022-07-06T14:08:47;10.18;;;5.70;;
40649;SDS011;26342;42.826;23.992;2022-07-06T14:11:13;7.03;;;5.35;;
40649;SDS011;26342;42.826;23.992;2022-07-06T14:13:38;7.63;;;5.55;;
40649;SDS011;26342;42.826;23.992;2022-07-06T14:16:05;8.80;;;5.53;;
40649;SDS011;26342;42.826;23.992;2022-07-06T14:18:31;8.57;;;5.85;;
40649;SDS011;26342;42.826;23.992;2022-07-06T14:20:56;9.43;;;6.40;;
40649;SDS011;26342;42.826;23.992;2022-07-06T14:23:22;7.82;;;5.97;;
40649;SDS011;26342;42.826;23.992;2022-07-06T14:25:49;7.13;;;5.18;;
40649;SDS011;26342;42.826;23.992;2022-07-06T14:28:15;8.43;;;5.93;;
40649;SDS011;26342;42.826;23.992;2022-07-06T14:30:41;9.43;;;6.30;;
40649;SDS011;26342;42.826;23.992;2022-07-06T14:33:09;9.48;;;6.43;;
40649;SDS011;26342;42.826;23.992;2022-07-06T14:35:36;9.07;;;6.38;;
40649;SDS011;26342;42.826;23.992;2022-07-06T14:38:04;8.63;;;6.30;;
40649;SDS011;26342;42.826;23.992;2022-07-06T14:40:30;9.00;;;5.88;;
40649;SDS011;26342;42.826;23.992;2022-07-06T14:42:56;8.85;;;6.63;;
40649;SDS011;26342;42.826;23.992;2022-07-06T14:45:22;9.05;;;6.00;;
40649;SDS011;26342;42.826;23.992;2022-07-06T14:47:48;9.20;;;5.72;;